sensor_id;sensor_type;location;lat;lon;timestamp;pressure;altitude;pressure_sealevel;temperature;humidity
64739;BME280;51175;51.186;0.276;2023-02-16T00:00:30;101911.13;;;11.99;73.22
64739;BME280;51175;51.186;0.276;2023-02-16T00:01:01;101901.56;;;11.98;73.02
64739;BME280;51175;51.186;0.276;2023-02-16T00:01:34;101908.47;;;11.99;72.99
64739;BME280;51175;51.186;0.276;2023-02-16T00:02:04;101907.44;;;12.00;73.22
64739;BME280;51175;51.186;0.276;2023-02-16T00:02:35;101907.44;;;12.00;73.18
64739;BME280;51175;51.186;0.276;2023-02-16T00:03:13;101910.91;;;12.00;72.92
64739;BME280;51175;51.186;0.276;2023-02-16T00:03:44;101907.44;;;12.00;73.10
64739;BME280;51175;51.186;0.276;2023-02-16T00:04:20;101909.88;;;12.01;73.43
64739;BME280;51175;51.186;0.276;2023-02-16T00:04:51;101910.69;;;12.02;73.22
64739;BME280;51175;51.186;0.276;2023-02-16T00:05:53;101901.09;;;12.01;73.32
64739;BME280;51175;51.186;0.276;2023-02-16T00:06:24;101901.91;;;12.01;73.13
64739;BME280;51175;51.186;0.276;2023-02-16T00:06:55;101899.28;;;12.01;73.09
64739;BME280;51175;51.186;0.276;2023-02-16T00:07:26;101900.88;;;12.02;73.03
64739;BME280;51175;51.186;0.276;2023-02-16T00:07:57;101892.16;;;12.02;73.22
64739;BME280;51175;51.186;0.276;2023-02-16T00:08:28;101896.41;;;12.03;73.21
64739;BME280;51175;51.186;0.276;2023-02-16T00:08:58;101900.88;;;12.02;72.93
64739;BME280;51175;51.186;0.276;2023-02-16T00:09:28;101901.69;;;12.03;73.00
64739;BME280;51175;51.186;0.276;2023-02-16T00:09:59;101900.88;;;12.02;72.95
64739;BME280;51175;51.186;0.276;2023-02-16T00:10:32;101896.41;;;12.03;73.08
64739;BME280;51175;51.186;0.276;2023-02-16T00:11:03;101897.22;;;12.03;72.80
64739;BME280;51175;51.186;0.276;2023-02-16T00:11:52;101896.41;;;12.03;72.93
64739;BME280;51175;51.186;0.276;2023-02-16T00:12:49;101906.75;;;12.04;73.06
64739;BME280;51175;51.186;0.276;2023-02-16T00:13:38;101895.34;;;12.04;73.05
64739;BME280;51175;51.186;0.276;2023-02-16T00:14:14;101897.22;;;12.03;73.22
64739;BME280;51175;51.186;0.276;2023-02-16T00:14:45;101897.44;;;12.02;73.03
64739;BME280;51175;51.186;0.276;2023-02-16T00:15:17;101904.34;;;12.03;73.18
64739;BME280;51175;51.186;0.276;2023-02-16T00:15:48;101898.22;;;12.02;73.05
64739;BME280;51175;51.186;0.276;2023-02-16T00:16:20;101899.84;;;12.03;73.10
64739;BME280;51175;51.186;0.276;2023-02-16T00:16:52;101895.56;;;12.02;73.01
64739;BME280;51175;51.186;0.276;2023-02-16T00:17:23;101897.22;;;12.03;73.22
64739;BME280;51175;51.186;0.276;2023-02-16T00:17:54;101898.00;;;12.04;73.23
64739;BME280;51175;51.186;0.276;2023-02-16T00:18:26;101894.56;;;12.03;73.16
64739;BME280;51175;51.186;0.276;2023-02-16T00:18:56;101889.25;;;12.03;73.10
64739;BME280;51175;51.186;0.276;2023-02-16T00:19:27;101897.22;;;12.03;73.21
64739;BME280;51175;51.186;0.276;2023-02-16T00:19:58;101891.91;;;12.03;73.34
64739;BME280;51175;51.186;0.276;2023-02-16T00:20:29;101893.50;;;12.04;73.26
64739;BME280;51175;51.186;0.276;2023-02-16T00:20:59;101889.25;;;12.03;73.30
64739;BME280;51175;51.186;0.276;2023-02-16T00:21:29;101891.69;;;12.05;73.28
64739;BME280;51175;51.186;0.276;2023-02-16T00:22:01;101890.06;;;12.04;72.99
64739;BME280;51175;51.186;0.276;2023-02-16T00:22:31;101896.97;;;12.05;73.27
64739;BME280;51175;51.186;0.276;2023-02-16T00:23:02;101895.09;;;12.05;73.10
64739;BME280;51175;51.186;0.276;2023-02-16T00:23:32;101889.03;;;12.05;73.28
64739;BME280;51175;51.186;0.276;2023-02-16T00:24:03;101889.03;;;12.05;73.39
64739;BME280;51175;51.186;0.276;2023-02-16T00:24:33;101889.03;;;12.05;73.39
64739;BME280;51175;51.186;0.276;2023-02-16T00:25:04;101893.28;;;12.06;73.20
64739;BME280;51175;51.186;0.276;2023-02-16T00:25:35;101887.97;;;12.06;73.33
64739;BME280;51175;51.186;0.276;2023-02-16T00:26:22;101887.16;;;12.05;73.29
64739;BME280;51175;51.186;0.276;2023-02-16T00:26:53;101890.63;;;12.06;72.93
64739;BME280;51175;51.186;0.276;2023-02-16T00:27:24;101893.28;;;12.06;73.03
64739;BME280;51175;51.186;0.276;2023-02-16T00:27:54;101885.34;;;12.06;73.38
64739;BME280;51175;51.186;0.276;2023-02-16T00:28:24;101892.22;;;12.07;73.37
64739;BME280;51175;51.186;0.276;2023-02-16T00:28:56;101895.72;;;12.08;73.08
64739;BME280;51175;51.186;0.276;2023-02-16T00:29:32;101886.94;;;12.07;73.27
64739;BME280;51175;51.186;0.276;2023-02-16T00:30:16;101881.63;;;12.07;73.34
64739;BME280;51175;51.186;0.276;2023-02-16T00:30:47;101881.63;;;12.07;73.21
64739;BME280;51175;51.186;0.276;2023-02-16T00:31:22;101884.28;;;12.07;73.11
64739;BME280;51175;51.186;0.276;2023-02-16T00:31:54;101879.84;;;12.08;73.35
64739;BME280;51175;51.186;0.276;2023-02-16T00:32:25;101879.00;;;12.07;73.42
64739;BME280;51175;51.186;0.276;2023-02-16T00:32:55;101882.47;;;12.08;73.40
64739;BME280;51175;51.186;0.276;2023-02-16T00:33:26;101880.84;;;12.07;73.21
64739;BME280;51175;51.186;0.276;2023-02-16T00:33:57;101877.19;;;12.08;73.13
64739;BME280;51175;51.186;0.276;2023-02-16T00:34:28;101880.66;;;12.08;73.31
64739;BME280;51175;51.186;0.276;2023-02-16T00:34:59;101883.28;;;12.08;73.10
64739;BME280;51175;51.186;0.276;2023-02-16T00:35:30;101878.00;;;12.08;73.11
64739;BME280;51175;51.186;0.276;2023-02-16T00:36:00;101883.28;;;12.08;73.46
64739;BME280;51175;51.186;0.276;2023-02-16T00:36:30;101876.94;;;12.09;73.32
64739;BME280;51175;51.186;0.276;2023-02-16T00:37:03;101880.41;;;12.10;73.43
64739;BME280;51175;51.186;0.276;2023-02-16T00:37:34;101878.78;;;12.09;73.32
64739;BME280;51175;51.186;0.276;2023-02-16T00:38:04;101884.88;;;12.09;73.55
64739;BME280;51175;51.186;0.276;2023-02-16T00:38:35;101883.28;;;12.08;73.33
64739;BME280;51175;51.186;0.276;2023-02-16T00:39:05;101874.31;;;12.09;73.54
64739;BME280;51175;51.186;0.276;2023-02-16T00:39:37;101884.06;;;12.09;73.50
64739;BME280;51175;51.186;0.276;2023-02-16T00:40:08;101875.91;;;12.10;73.35
64739;BME280;51175;51.186;0.276;2023-02-16T00:40:40;101886.72;;;12.09;73.22
64739;BME280;51175;51.186;0.276;2023-02-16T00:42:13;101880.41;;;12.10;73.41
64739;BME280;51175;51.186;0.276;2023-02-16T00:42:45;101877.75;;;12.10;73.17
64739;BME280;51175;51.186;0.276;2023-02-16T00:43:24;101879.59;;;12.09;73.19
64739;BME280;51175;51.186;0.276;2023-02-16T00:43:55;101868.19;;;12.09;72.97
64739;BME280;51175;51.186;0.276;2023-02-16T00:44:30;101877.75;;;12.10;73.22
64739;BME280;51175;51.186;0.276;2023-02-16T00:45:02;101884.88;;;12.09;73.13
64739;BME280;51175;51.186;0.276;2023-02-16T00:45:36;101875.13;;;12.10;72.96
64739;BME280;51175;51.186;0.276;2023-02-16T00:46:07;101869.81;;;12.10;72.94
64739;BME280;51175;51.186;0.276;2023-02-16T00:46:38;101882.00;;;12.11;73.21
64739;BME280;51175;51.186;0.276;2023-02-16T00:47:37;101873.25;;;12.10;72.91
64739;BME280;51175;51.186;0.276;2023-02-16T00:48:08;101870.59;;;12.10;72.92
64739;BME280;51175;51.186;0.276;2023-02-16T00:48:38;101872.47;;;12.10;73.06
64739;BME280;51175;51.186;0.276;2023-02-16T00:49:17;101871.41;;;12.11;73.12
64739;BME280;51175;51.186;0.276;2023-02-16T00:49:50;101868.78;;;12.11;73.03
64739;BME280;51175;51.186;0.276;2023-02-16T00:50:28;101859.47;;;12.08;72.90
64739;BME280;51175;51.186;0.276;2023-02-16T00:50:58;101869.59;;;12.11;73.21
64739;BME280;51175;51.186;0.276;2023-02-16T00:51:29;101866.13;;;12.11;73.32
64739;BME280;51175;51.186;0.276;2023-02-16T00:51:59;101866.13;;;12.11;72.89
64739;BME280;51175;51.186;0.276;2023-02-16T00:52:36;101870.59;;;12.10;73.07
64739;BME280;51175;51.186;0.276;2023-02-16T00:53:06;101868.78;;;12.11;73.25
64739;BME280;51175;51.186;0.276;2023-02-16T00:53:36;101867.94;;;12.10;73.56
64739;BME280;51175;51.186;0.276;2023-02-16T00:54:07;101874.06;;;12.11;73.31
64739;BME280;51175;51.186;0.276;2023-02-16T00:54:37;101870.59;;;12.10;73.14
64739;BME280;51175;51.186;0.276;2023-02-16T00:55:11;101871.41;;;12.11;73.16
64739;BME280;51175;51.186;0.276;2023-02-16T00:55:43;101870.59;;;12.10;73.26
64739;BME280;51175;51.186;0.276;2023-02-16T00:56:17;101873.25;;;12.10;73.03
64739;BME280;51175;51.186;0.276;2023-02-16T00:56:48;101870.59;;;12.10;73.06
64739;BME280;51175;51.186;0.276;2023-02-16T00:57:19;101874.06;;;12.11;73.12
64739;BME280;51175;51.186;0.276;2023-02-16T00:58:36;101867.16;;;12.10;73.08
64739;BME280;51175;51.186;0.276;2023-02-16T00:59:10;101868.78;;;12.11;73.30
64739;BME280;51175;51.186;0.276;2023-02-16T00:59:41;101869.00;;;12.09;73.07
64739;BME280;51175;51.186;0.276;2023-02-16T01:00:22;101871.41;;;12.11;73.07
64739;BME280;51175;51.186;0.276;2023-02-16T01:00:55;101866.94;;;12.11;73.38
64739;BME280;51175;51.186;0.276;2023-02-16T01:01:30;101868.78;;;12.11;73.07
64739;BME280;51175;51.186;0.276;2023-02-16T01:02:01;101866.13;;;12.11;73.13
64739;BME280;51175;51.186;0.276;2023-02-16T01:02:31;101860.81;;;12.11;72.95
64739;BME280;51175;51.186;0.276;2023-02-16T01:03:05;101864.28;;;12.11;73.09
64739;BME280;51175;51.186;0.276;2023-02-16T01:03:37;101862.66;;;12.10;73.35
64739;BME280;51175;51.186;0.276;2023-02-16T01:04:10;101866.94;;;12.11;73.31
64739;BME280;51175;51.186;0.276;2023-02-16T01:04:42;101863.47;;;12.11;73.25
64739;BME280;51175;51.186;0.276;2023-02-16T01:05:12;101866.94;;;12.11;73.22
64739;BME280;51175;51.186;0.276;2023-02-16T01:05:43;101861.63;;;12.11;73.25
64739;BME280;51175;51.186;0.276;2023-02-16T01:06:13;101864.28;;;12.11;73.18
64739;BME280;51175;51.186;0.276;2023-02-16T01:07:09;101854.72;;;12.10;73.08
64739;BME280;51175;51.186;0.276;2023-02-16T01:07:59;101859.00;;;12.11;73.08
64739;BME280;51175;51.186;0.276;2023-02-16T01:08:49;101855.75;;;12.09;73.17
64739;BME280;51175;51.186;0.276;2023-02-16T01:09:37;101857.59;;;12.09;72.88
64739;BME280;51175;51.186;0.276;2023-02-16T01:10:28;101855.75;;;12.09;72.99
64739;BME280;51175;51.186;0.276;2023-02-16T01:11:17;101854.94;;;12.09;73.03
64739;BME280;51175;51.186;0.276;2023-02-16T01:11:48;101850.47;;;12.09;73.01
64739;BME280;51175;51.186;0.276;2023-02-16T01:12:19;101855.75;;;12.09;73.07
64739;BME280;51175;51.186;0.276;2023-02-16T01:12:50;101849.66;;;12.09;73.28
64739;BME280;51175;51.186;0.276;2023-02-16T01:13:22;101848.88;;;12.08;73.18
64739;BME280;51175;51.186;0.276;2023-02-16T01:13:54;101851.50;;;12.08;72.98
64739;BME280;51175;51.186;0.276;2023-02-16T01:14:25;101852.50;;;12.07;73.25
64739;BME280;51175;51.186;0.276;2023-02-16T01:14:55;101850.69;;;12.08;73.25
64739;BME280;51175;51.186;0.276;2023-02-16T01:15:26;101855.16;;;12.07;72.97
64739;BME280;51175;51.186;0.276;2023-02-16T01:15:56;101853.34;;;12.08;73.13
64739;BME280;51175;51.186;0.276;2023-02-16T01:16:39;101855.16;;;12.07;73.23
64739;BME280;51175;51.186;0.276;2023-02-16T01:17:10;101850.69;;;12.08;73.22
64739;BME280;51175;51.186;0.276;2023-02-16T01:17:40;101855.16;;;12.07;73.25
64739;BME280;51175;51.186;0.276;2023-02-16T01:18:15;101856.81;;;12.08;73.11
64739;BME280;51175;51.186;0.276;2023-02-16T01:18:47;101856.00;;;12.08;72.96
64739;BME280;51175;51.186;0.276;2023-02-16T01:19:18;101850.69;;;12.08;72.99
64739;BME280;51175;51.186;0.276;2023-02-16T01:19:48;101853.34;;;12.08;73.06
64739;BME280;51175;51.186;0.276;2023-02-16T01:20:23;101848.06;;;12.08;73.07
64739;BME280;51175;51.186;0.276;2023-02-16T01:20:54;101850.69;;;12.08;72.87
64739;BME280;51175;51.186;0.276;2023-02-16T01:21:24;101857.59;;;12.09;72.82
64739;BME280;51175;51.186;0.276;2023-02-16T01:21:54;101856.81;;;12.08;72.44
64739;BME280;51175;51.186;0.276;2023-02-16T01:22:25;101853.13;;;12.09;72.65
64739;BME280;51175;51.186;0.276;2023-02-16T01:22:55;101864.75;;;12.08;72.74
64739;BME280;51175;51.186;0.276;2023-02-16T01:23:26;101858.41;;;12.09;72.74
64739;BME280;51175;51.186;0.276;2023-02-16T01:23:56;101857.59;;;12.09;73.00
64739;BME280;51175;51.186;0.276;2023-02-16T01:24:29;101854.94;;;12.09;73.14
64739;BME280;51175;51.186;0.276;2023-02-16T01:25:00;101854.16;;;12.08;73.19
64739;BME280;51175;51.186;0.276;2023-02-16T01:25:30;101859.22;;;12.10;73.17
64739;BME280;51175;51.186;0.276;2023-02-16T01:26:00;101858.41;;;12.09;73.22
64739;BME280;51175;51.186;0.276;2023-02-16T01:26:33;101859.22;;;12.10;73.05
64739;BME280;51175;51.186;0.276;2023-02-16T01:27:10;101854.94;;;12.09;72.85
64739;BME280;51175;51.186;0.276;2023-02-16T01:27:42;101858.41;;;12.09;72.86
64739;BME280;51175;51.186;0.276;2023-02-16T01:28:23;101858.41;;;12.09;72.97
64739;BME280;51175;51.186;0.276;2023-02-16T01:28:54;101860.00;;;12.10;72.77
64739;BME280;51175;51.186;0.276;2023-02-16T01:29:25;101856.56;;;12.10;72.53
64739;BME280;51175;51.186;0.276;2023-02-16T01:29:55;101858.41;;;12.09;72.76
64739;BME280;51175;51.186;0.276;2023-02-16T01:30:25;101853.94;;;12.10;72.60
64739;BME280;51175;51.186;0.276;2023-02-16T01:30:56;101853.94;;;12.10;72.71
64739;BME280;51175;51.186;0.276;2023-02-16T01:31:26;101861.06;;;12.09;72.64
64739;BME280;51175;51.186;0.276;2023-02-16T01:31:56;101853.13;;;12.09;72.51
64739;BME280;51175;51.186;0.276;2023-02-16T01:32:27;101853.94;;;12.10;72.75
64739;BME280;51175;51.186;0.276;2023-02-16T01:32:57;101858.41;;;12.09;72.76
64739;BME280;51175;51.186;0.276;2023-02-16T01:33:28;101861.06;;;12.09;72.67
64739;BME280;51175;51.186;0.276;2023-02-16T01:33:58;101862.66;;;12.10;72.79
64739;BME280;51175;51.186;0.276;2023-02-16T01:34:28;101854.72;;;12.10;72.72
64739;BME280;51175;51.186;0.276;2023-02-16T01:34:59;101849.41;;;12.10;72.77
64739;BME280;51175;51.186;0.276;2023-02-16T01:35:31;101856.56;;;12.10;72.69
64739;BME280;51175;51.186;0.276;2023-02-16T01:36:03;101859.22;;;12.10;72.83
64739;BME280;51175;51.186;0.276;2023-02-16T01:36:52;101858.41;;;12.09;72.61
64739;BME280;51175;51.186;0.276;2023-02-16T01:37:22;101852.06;;;12.10;72.49
64739;BME280;51175;51.186;0.276;2023-02-16T01:37:53;101858.41;;;12.09;72.47
64739;BME280;51175;51.186;0.276;2023-02-16T01:38:25;101857.59;;;12.09;72.48
64739;BME280;51175;51.186;0.276;2023-02-16T01:38:56;101853.13;;;12.09;72.39
64739;BME280;51175;51.186;0.276;2023-02-16T01:39:26;101859.22;;;12.10;72.60
64739;BME280;51175;51.186;0.276;2023-02-16T01:39:57;101858.41;;;12.09;72.61
64739;BME280;51175;51.186;0.276;2023-02-16T01:43:45;101843.56;;;12.08;72.75
64739;BME280;51175;51.186;0.276;2023-02-16T01:43:56;101849.84;;;12.07;72.51
64739;BME280;51175;51.186;0.276;2023-02-16T01:44:39;101847.22;;;12.07;72.73
64739;BME280;51175;51.186;0.276;2023-02-16T01:45:19;101859.47;;;12.08;72.71
64739;BME280;51175;51.186;0.276;2023-02-16T01:46:02;101851.50;;;12.08;72.50
64739;BME280;51175;51.186;0.276;2023-02-16T01:46:38;101846.44;;;12.07;72.67
64739;BME280;51175;51.186;0.276;2023-02-16T01:48:20;101850.91;;;12.06;72.67
64739;BME280;51175;51.186;0.276;2023-02-16T01:48:51;101848.25;;;12.06;72.70
64739;BME280;51175;51.186;0.276;2023-02-16T01:49:21;101858.03;;;12.05;72.77
64739;BME280;51175;51.186;0.276;2023-02-16T01:49:52;101848.50;;;12.04;72.63
64739;BME280;51175;51.186;0.276;2023-02-16T01:50:25;101854.59;;;12.05;72.75
64739;BME280;51175;51.186;0.276;2023-02-16T01:51:03;101850.31;;;12.04;72.73
64739;BME280;51175;51.186;0.276;2023-02-16T01:51:49;101850.31;;;12.04;72.57
64739;BME280;51175;51.186;0.276;2023-02-16T01:52:36;101853.78;;;12.04;72.60
64739;BME280;51175;51.186;0.276;2023-02-16T01:53:27;101858.28;;;12.04;72.59
64739;BME280;51175;51.186;0.276;2023-02-16T01:55:06;101856.69;;;12.03;72.70
64739;BME280;51175;51.186;0.276;2023-02-16T01:55:47;101850.81;;;12.01;72.35
64739;BME280;51175;51.186;0.276;2023-02-16T01:56:42;101849.78;;;12.02;72.70
64739;BME280;51175;51.186;0.276;2023-02-16T01:57:56;101842.06;;;12.00;72.66
64739;BME280;51175;51.186;0.276;2023-02-16T02:00:12;101845.75;;;11.99;72.69
64739;BME280;51175;51.186;0.276;2023-02-16T02:01:47;101845.50;;;12.01;72.57
64739;BME280;51175;51.186;0.276;2023-02-16T02:02:45;101840.44;;;11.99;72.59
64739;BME280;51175;51.186;0.276;2023-02-16T02:03:23;101845.75;;;11.99;72.56
64739;BME280;51175;51.186;0.276;2023-02-16T02:05:26;101833.78;;;11.97;72.82
64739;BME280;51175;51.186;0.276;2023-02-16T02:06:15;101838.03;;;11.98;72.66
64739;BME280;51175;51.186;0.276;2023-02-16T02:06:46;101834.56;;;11.97;72.69
64739;BME280;51175;51.186;0.276;2023-02-16T02:07:26;101828.72;;;11.95;72.65
64739;BME280;51175;51.186;0.276;2023-02-16T02:08:51;101838.28;;;11.96;73.00
64739;BME280;51175;51.186;0.276;2023-02-16T02:09:36;101831.13;;;11.97;72.75
64739;BME280;51175;51.186;0.276;2023-02-16T02:11:29;101841.97;;;11.95;72.78
64739;BME280;51175;51.186;0.276;2023-02-16T02:12:27;101841.97;;;11.95;72.51
64739;BME280;51175;51.186;0.276;2023-02-16T02:13:23;101836.66;;;11.95;72.53
64739;BME280;51175;51.186;0.276;2023-02-16T02:13:59;101841.16;;;11.95;72.70
64739;BME280;51175;51.186;0.276;2023-02-16T02:14:35;101848.03;;;11.96;72.58
64739;BME280;51175;51.186;0.276;2023-02-16T02:15:08;101842.97;;;11.94;72.55
64739;BME280;51175;51.186;0.276;2023-02-16T02:15:39;101837.69;;;11.94;72.58
64739;BME280;51175;51.186;0.276;2023-02-16T02:16:10;101836.66;;;11.95;72.75
64739;BME280;51175;51.186;0.276;2023-02-16T02:16:57;101839.31;;;11.95;72.50
64739;BME280;51175;51.186;0.276;2023-02-16T02:17:28;101842.75;;;11.96;72.47
64739;BME280;51175;51.186;0.276;2023-02-16T02:17:58;101835.84;;;11.95;72.69
64739;BME280;51175;51.186;0.276;2023-02-16T02:18:29;101842.75;;;11.96;72.71
64739;BME280;51175;51.186;0.276;2023-02-16T02:18:59;101850.69;;;11.96;72.51
64739;BME280;51175;51.186;0.276;2023-02-16T02:19:31;101842.75;;;11.96;72.76
64739;BME280;51175;51.186;0.276;2023-02-16T02:20:24;101845.16;;;11.97;72.67
64739;BME280;51175;51.186;0.276;2023-02-16T02:23:44;101847.03;;;11.97;72.41
64739;BME280;51175;51.186;0.276;2023-02-16T02:28:32;101845.63;;;11.94;72.80
64739;BME280;51175;51.186;0.276;2023-02-16T02:35:12;101834.50;;;11.92;72.56
64739;BME280;51175;51.186;0.276;2023-02-16T02:36:41;101835.50;;;11.91;72.75
64739;BME280;51175;51.186;0.276;2023-02-16T02:38:31;101841.63;;;11.91;72.70
64739;BME280;51175;51.186;0.276;2023-02-16T02:39:45;101838.97;;;11.91;72.60
64739;BME280;51175;51.186;0.276;2023-02-16T02:40:40;101837.38;;;11.90;72.46
64739;BME280;51175;51.186;0.276;2023-02-16T02:41:27;101835.75;;;11.89;72.55
64739;BME280;51175;51.186;0.276;2023-02-16T02:43:17;101836.56;;;11.90;72.81
64739;BME280;51175;51.186;0.276;2023-02-16T02:43:56;101832.31;;;11.89;72.66
64739;BME280;51175;51.186;0.276;2023-02-16T02:44:32;101836.78;;;11.88;72.68
64739;BME280;51175;51.186;0.276;2023-02-16T02:45:13;101836.78;;;11.88;72.58
64739;BME280;51175;51.186;0.276;2023-02-16T02:46:29;101842.09;;;11.88;72.80
64739;BME280;51175;51.186;0.276;2023-02-16T02:47:00;101836.78;;;11.88;72.86
64739;BME280;51175;51.186;0.276;2023-02-16T02:47:43;101834.97;;;11.89;72.71
64739;BME280;51175;51.186;0.276;2023-02-16T02:48:13;101835.19;;;11.87;72.69
64739;BME280;51175;51.186;0.276;2023-02-16T02:48:44;101837.63;;;11.89;72.65
64739;BME280;51175;51.186;0.276;2023-02-16T02:49:14;101838.63;;;11.88;72.90
64739;BME280;51175;51.186;0.276;2023-02-16T02:49:52;101842.91;;;11.89;72.96
64739;BME280;51175;51.186;0.276;2023-02-16T02:51:11;101841.84;;;11.90;72.80
64739;BME280;51175;51.186;0.276;2023-02-16T02:51:57;101843.69;;;11.89;72.94
64739;BME280;51175;51.186;0.276;2023-02-16T02:52:28;101843.69;;;11.89;72.89
64739;BME280;51175;51.186;0.276;2023-02-16T02:53:03;101841.84;;;11.90;73.18
64739;BME280;51175;51.186;0.276;2023-02-16T02:53:36;101840.81;;;11.91;72.94
64739;BME280;51175;51.186;0.276;2023-02-16T02:54:24;101841.84;;;11.90;72.88
64739;BME280;51175;51.186;0.276;2023-02-16T02:55:14;101841.84;;;11.90;72.65
64739;BME280;51175;51.186;0.276;2023-02-16T02:56:04;101843.69;;;11.89;73.01
64739;BME280;51175;51.186;0.276;2023-02-16T02:58:17;101844.50;;;11.90;72.89
64739;BME280;51175;51.186;0.276;2023-02-16T02:59:08;101844.50;;;11.90;72.85
64739;BME280;51175;51.186;0.276;2023-02-16T03:00:14;101844.50;;;11.90;73.01
64739;BME280;51175;51.186;0.276;2023-02-16T03:01:05;101846.34;;;11.89;72.86
64739;BME280;51175;51.186;0.276;2023-02-16T03:01:39;101845.56;;;11.89;72.87
64739;BME280;51175;51.186;0.276;2023-02-16T03:02:12;101842.09;;;11.88;72.95
64739;BME280;51175;51.186;0.276;2023-02-16T03:02:47;101846.34;;;11.89;72.94
64739;BME280;51175;51.186;0.276;2023-02-16T03:03:26;101839.22;;;11.90;72.92
64739;BME280;51175;51.186;0.276;2023-02-16T03:04:00;101842.09;;;11.88;72.99
64739;BME280;51175;51.186;0.276;2023-02-16T03:04:31;101846.34;;;11.89;72.84
64739;BME280;51175;51.186;0.276;2023-02-16T03:05:04;101846.34;;;11.89;72.78
64739;BME280;51175;51.186;0.276;2023-02-16T03:05:38;101848.75;;;11.91;72.80
64739;BME280;51175;51.186;0.276;2023-02-16T03:06:15;101847.16;;;11.90;72.92
64739;BME280;51175;51.186;0.276;2023-02-16T03:06:50;101843.47;;;11.91;72.74
64739;BME280;51175;51.186;0.276;2023-02-16T03:07:22;101844.50;;;11.90;72.75
64739;BME280;51175;51.186;0.276;2023-02-16T03:08:18;101841.84;;;11.90;72.74
64739;BME280;51175;51.186;0.276;2023-02-16T03:08:54;101843.47;;;11.91;72.77
64739;BME280;51175;51.186;0.276;2023-02-16T03:09:28;101844.28;;;11.91;72.66
64739;BME280;51175;51.186;0.276;2023-02-16T03:09:58;101844.28;;;11.91;72.58
64739;BME280;51175;51.186;0.276;2023-02-16T03:10:56;101845.88;;;11.92;72.90
64739;BME280;51175;51.186;0.276;2023-02-16T03:11:48;101843.22;;;11.92;72.77
64739;BME280;51175;51.186;0.276;2023-02-16T03:12:37;101837.13;;;11.92;72.71
64739;BME280;51175;51.186;0.276;2023-02-16T03:13:27;101840.56;;;11.92;72.85
64739;BME280;51175;51.186;0.276;2023-02-16T03:14:19;101835.28;;;11.92;72.79
64739;BME280;51175;51.186;0.276;2023-02-16T03:14:59;101841.63;;;11.91;72.70
64739;BME280;51175;51.186;0.276;2023-02-16T03:15:30;101838.97;;;11.91;72.43
64739;BME280;51175;51.186;0.276;2023-02-16T03:16:06;101841.38;;;11.93;72.87
64739;BME280;51175;51.186;0.276;2023-02-16T03:16:59;101837.13;;;11.92;72.75
64739;BME280;51175;51.186;0.276;2023-02-16T03:17:49;101846.91;;;11.91;72.72
64739;BME280;51175;51.186;0.276;2023-02-16T03:18:41;101835.50;;;11.91;72.78
64739;BME280;51175;51.186;0.276;2023-02-16T03:19:31;101841.63;;;11.91;72.74
64739;BME280;51175;51.186;0.276;2023-02-16T03:20:20;101838.97;;;11.91;72.62
64739;BME280;51175;51.186;0.276;2023-02-16T03:21:11;101840.03;;;11.90;72.69
64739;BME280;51175;51.186;0.276;2023-02-16T03:22:03;101844.50;;;11.90;72.65
64739;BME280;51175;51.186;0.276;2023-02-16T03:22:52;101833.09;;;11.89;72.58
64739;BME280;51175;51.186;0.276;2023-02-16T03:23:43;101833.09;;;11.89;72.59
64739;BME280;51175;51.186;0.276;2023-02-16T03:24:33;101836.78;;;11.88;72.51
64739;BME280;51175;51.186;0.276;2023-02-16T03:25:24;101828.84;;;11.88;72.82
64739;BME280;51175;51.186;0.276;2023-02-16T03:26:14;101828.84;;;11.88;72.59
64739;BME280;51175;51.186;0.276;2023-02-16T03:27:04;101826.22;;;11.88;72.68
64739;BME280;51175;51.186;0.276;2023-02-16T03:27:54;101828.03;;;11.88;72.80
64739;BME280;51175;51.186;0.276;2023-02-16T03:28:46;101832.56;;;11.87;72.65
64739;BME280;51175;51.186;0.276;2023-02-16T03:29:36;101829.09;;;11.87;72.81
64739;BME280;51175;51.186;0.276;2023-02-16T03:30:07;101837.03;;;11.87;72.81
64739;BME280;51175;51.186;0.276;2023-02-16T03:30:40;101822.97;;;11.86;72.87
64739;BME280;51175;51.186;0.276;2023-02-16T03:31:16;101831.75;;;11.87;72.89
64739;BME280;51175;51.186;0.276;2023-02-16T03:31:49;101820.34;;;11.86;72.96
64739;BME280;51175;51.186;0.276;2023-02-16T03:32:19;101820.34;;;11.86;72.73
64739;BME280;51175;51.186;0.276;2023-02-16T03:32:51;101817.69;;;11.86;73.02
64739;BME280;51175;51.186;0.276;2023-02-16T03:33:22;101821.97;;;11.87;72.88
64739;BME280;51175;51.186;0.276;2023-02-16T03:33:53;101814.03;;;11.87;72.76
64739;BME280;51175;51.186;0.276;2023-02-16T03:34:24;101812.41;;;11.86;72.50
64739;BME280;51175;51.186;0.276;2023-02-16T03:34:55;101815.84;;;11.87;72.79
64739;BME280;51175;51.186;0.276;2023-02-16T03:35:25;101812.97;;;11.88;72.73
64739;BME280;51175;51.186;0.276;2023-02-16T03:35:57;101814.81;;;11.88;72.60
64739;BME280;51175;51.186;0.276;2023-02-16T03:36:30;101812.97;;;11.88;72.80
64739;BME280;51175;51.186;0.276;2023-02-16T03:37:02;101815.63;;;11.88;72.84
64739;BME280;51175;51.186;0.276;2023-02-16T03:37:34;101811.13;;;11.89;73.01
64739;BME280;51175;51.186;0.276;2023-02-16T03:38:05;101816.44;;;11.89;72.86
64739;BME280;51175;51.186;0.276;2023-02-16T03:38:36;101814.56;;;11.89;72.87
64739;BME280;51175;51.186;0.276;2023-02-16T03:39:09;101807.69;;;11.88;72.88
64739;BME280;51175;51.186;0.276;2023-02-16T03:39:40;101803.97;;;11.89;72.91
64739;BME280;51175;51.186;0.276;2023-02-16T03:40:31;101799.50;;;11.90;72.80
64739;BME280;51175;51.186;0.276;2023-02-16T03:41:04;101810.66;;;11.92;72.65
64739;BME280;51175;51.186;0.276;2023-02-16T03:41:41;101807.22;;;11.91;72.68
64739;BME280;51175;51.186;0.276;2023-02-16T03:42:12;101808.03;;;11.92;72.72